Time;durP1;ratioP1;P1;durP2;ratioP2;P2;SDS_P1;SDS_P2;PMS_P1;PMS_P2;Temp;Humidity;BMP_temperature;BMP_pressure;BME280_temperature;BME280_humidity;BME280_pressure;Samples;Min_cycle;Max_cycle;Signal;HPM_P1;HPM_P2
2021/07/29 00:00:33;;;;;;;6.07;5.47;;;29.00;96.30;;;;;;6140799;23;20966;-95
2021/07/29 00:02:59;;;;;;;8.97;6.10;;;29.00;96.10;;;;;;6138110;23;20380;-94
2021/07/29 00:05:26;;;;;;;9.83;6.10;;;29.00;96.60;;;;;;6132115;23;20451;-93
2021/07/29 00:07:53;;;;;;;8.97;6.13;;;29.00;96.80;;;;;;6131890;23;20159;-92
2021/07/29 00:10:19;;;;;;;10.23;6.53;;;29.00;96.50;;;;;;6131870;23;20459;-92
2021/07/29 00:12:45;;;;;;;7.03;5.97;;;29.00;96.20;;;;;;6160288;23;20447;-94
2021/07/29 00:15:16;;;;;;;8.13;6.30;;;29.00;96.50;;;;;;6131543;23;20422;-94
2021/07/29 00:20:17;;;;;;;6.03;5.40;;;28.90;95.80;;;;;;6160277;23;20431;-94
2021/07/29 00:22:44;;;;;;;6.93;6.10;;;28.90;95.50;;;;;;6158718;23;20366;-94
2021/07/29 00:25:13;;;;;;;6.90;6.20;;;28.90;95.40;;;;;;6131317;23;20400;-92
2021/07/29 00:27:40;;;;;;;8.40;6.30;;;28.90;95.30;;;;;;6131557;23;20693;-94
2021/07/29 00:30:07;;;;;;;8.13;6.40;;;28.80;95.10;;;;;;6131278;23;20418;-93
2021/07/29 00:32:33;;;;;;;6.80;6.10;;;28.80;95.10;;;;;;6131731;23;20388;-92
2021/07/29 00:35:02;;;;;;;6.50;5.87;;;28.80;95.00;;;;;;6157412;23;20425;-91
2021/07/29 00:37:27;;;;;;;7.80;6.03;;;28.80;95.00;;;;;;6157443;23;20873;-93
2021/07/29 00:39:53;;;;;;;6.13;5.53;;;28.70;94.90;;;;;;6132723;23;20425;-92
2021/07/29 00:42:18;;;;;;;9.10;6.90;;;28.70;95.00;;;;;;6136564;23;20165;-91
2021/07/29 00:44:44;;;;;;;6.73;6.03;;;28.70;94.90;;;;;;6133711;23;20190;-94
2021/07/29 00:47:11;;;;;;;7.60;6.20;;;28.60;94.80;;;;;;6139140;23;20164;-91
2021/07/29 00:49:37;;;;;;;9.17;6.33;;;28.60;94.80;;;;;;6139453;23;20200;-92
2021/07/29 00:52:03;;;;;;;7.13;6.13;;;28.60;94.70;;;;;;6136197;23;20959;-93
2021/07/29 00:54:30;;;;;;;6.57;5.87;;;28.50;94.70;;;;;;6132261;23;20413;-92
2021/07/29 00:56:57;;;;;;;6.80;6.10;;;28.50;94.70;;;;;;6144475;23;20408;-93
2021/07/29 00:59:26;;;;;;;7.03;5.80;;;28.40;94.70;;;;;;6139660;23;20741;-93
2021/07/29 01:01:52;;;;;;;6.60;5.77;;;28.40;94.70;;;;;;6132661;23;20490;-91
2021/07/29 01:04:18;;;;;;;8.37;6.73;;;28.40;94.80;;;;;;6133977;23;20724;-91
2021/07/29 01:06:45;;;;;;;9.27;6.23;;;28.40;94.90;;;;;;6133851;23;20192;-94
2021/07/29 01:09:11;;;;;;;7.00;6.00;;;28.30;95.00;;;;;;6133477;23;20268;-91
2021/07/29 01:11:39;;;;;;;10.30;6.23;;;28.20;95.00;;;;;;6133892;23;20402;-96
2021/07/29 01:14:05;;;;;;;9.23;6.13;;;28.20;95.20;;;;;;6133463;23;20236;-92
2021/07/29 01:16:32;;;;;;;6.27;5.67;;;28.10;95.40;;;;;;6133754;23;20429;-94
2021/07/29 01:19:00;;;;;;;6.63;5.73;;;28.00;95.70;;;;;;6133321;23;20405;-91
2021/07/29 01:21:29;;;;;;;6.63;6.00;;;28.00;96.00;;;;;;6159726;23;20385;-93
2021/07/29 01:23:56;;;;;;;5.83;5.23;;;27.90;96.50;;;;;;6133164;23;20401;-92
2021/07/29 01:26:22;;;;;;;6.53;5.10;;;27.80;96.50;;;;;;6159465;23;20396;-93
2021/07/29 01:28:47;;;;;;;7.07;5.40;;;27.70;96.70;;;;;;6134222;23;20495;-92
2021/07/29 01:31:13;;;;;;;7.03;5.93;;;27.70;96.90;;;;;;6133991;23;20398;-92
2021/07/29 01:33:40;;;;;;;6.40;5.77;;;27.60;97.00;;;;;;6145225;23;20198;-92
2021/07/29 01:36:06;;;;;;;11.30;6.10;;;27.60;97.30;;;;;;6138917;23;20496;-92
2021/07/29 01:38:32;;;;;;;5.40;4.90;;;27.60;97.70;;;;;;6133018;23;20386;-93
2021/07/29 01:40:58;;;;;;;5.93;4.90;;;27.50;98.10;;;;;;6133390;23;20537;-95
2021/07/29 01:43:25;;;;;;;7.10;5.40;;;27.50;98.50;;;;;;6134155;23;20776;-92
2021/07/29 01:45:50;;;;;;;5.50;4.80;;;27.40;98.90;;;;;;6159162;23;20460;-92
2021/07/29 01:48:16;;;;;;;4.90;4.40;;;27.30;99.10;;;;;;6158782;23;20433;-90
2021/07/29 01:50:45;;;;;;;6.87;4.43;;;27.30;99.50;;;;;;6147040;23;20171;-93
2021/07/29 01:53:11;;;;;;;6.37;5.20;;;27.30;99.90;;;;;;6137379;23;20593;-95
2021/07/29 01:55:41;;;;;;;9.70;5.03;;;27.30;99.90;;;;;;6133315;23;20417;-94
2021/07/29 01:58:07;;;;;;;6.47;4.87;;;27.20;99.90;;;;;;6166716;23;20431;-90
2021/07/29 02:00:33;;;;;;;5.10;4.60;;;27.10;99.90;;;;;;6135372;23;20424;-92
2021/07/29 02:02:59;;;;;;;5.87;4.77;;;27.00;99.90;;;;;;6169454;23;20155;-92
2021/07/29 02:05:25;;;;;;;6.27;4.60;;;27.00;99.90;;;;;;6132575;23;20400;-94
2021/07/29 02:07:51;;;;;;;9.30;5.93;;;27.00;99.90;;;;;;6145721;23;20163;-89
2021/07/29 02:10:16;;;;;;;5.40;4.80;;;26.90;99.90;;;;;;6145039;23;20625;-92
2021/07/29 02:12:42;;;;;;;5.83;5.20;;;26.90;99.90;;;;;;6153142;23;20155;-93
2021/07/29 02:15:08;;;;;;;5.30;4.80;;;26.80;99.90;;;;;;6158489;23;20503;-93
2021/07/29 02:17:34;;;;;;;5.47;4.97;;;26.70;99.90;;;;;;6132697;23;20171;-92
2021/07/29 02:20:00;;;;;;;6.13;5.10;;;26.70;99.90;;;;;;6132862;23;20978;-93
2021/07/29 02:22:26;;;;;;;8.23;5.90;;;26.50;99.90;;;;;;6133706;23;20465;-91
2021/07/29 02:24:51;;;;;;;6.83;5.40;;;26.50;99.90;;;;;;6141123;23;20408;-93
2021/07/29 02:27:18;;;;;;;6.17;5.10;;;26.40;99.90;;;;;;6133003;23;20183;-93
2021/07/29 02:29:44;;;;;;;7.20;5.53;;;26.30;99.90;;;;;;6158949;23;20202;-94
2021/07/29 02:32:10;;;;;;;7.83;5.40;;;26.20;99.90;;;;;;6133157;23;20533;-93
2021/07/29 02:34:36;;;;;;;6.80;5.17;;;26.20;99.90;;;;;;6132441;23;20199;-91
2021/07/29 02:37:01;;;;;;;7.23;5.53;;;26.10;99.90;;;;;;6158952;23;20163;-92
2021/07/29 02:39:27;;;;;;;6.73;5.37;;;26.10;99.90;;;;;;6132499;23;20178;-91
2021/07/29 02:41:53;;;;;;;7.13;4.93;;;26.00;99.90;;;;;;6132946;23;20171;-88
2021/07/29 02:44:18;;;;;;;6.30;5.70;;;26.00;99.90;;;;;;6132753;23;20182;-91
2021/07/29 02:46:44;;;;;;;5.40;4.90;;;25.90;99.90;;;;;;6132864;23;20697;-93
2021/07/29 02:49:10;;;;;;;6.20;5.30;;;25.90;99.90;;;;;;6132492;23;20305;-93
2021/07/29 02:51:35;;;;;;;5.70;5.10;;;25.90;99.90;;;;;;6132886;23;20175;-93
2021/07/29 02:54:01;;;;;;;8.63;5.63;;;25.90;99.90;;;;;;6132701;23;20175;-91
2021/07/29 02:56:26;;;;;;;7.40;5.70;;;25.80;99.90;;;;;;6159021;23;20179;-94
2021/07/29 02:58:52;;;;;;;6.30;5.13;;;25.80;99.90;;;;;;6158431;23;20205;-91
2021/07/29 03:01:18;;;;;;;8.47;5.30;;;25.80;99.90;;;;;;6132687;23;20166;-93
2021/07/29 03:03:44;;;;;;;5.73;4.90;;;25.80;99.90;;;;;;6132640;23;20182;-93
2021/07/29 03:06:11;;;;;;;7.57;5.17;;;25.80;99.90;;;;;;6132450;23;20172;-95
2021/07/29 03:08:37;;;;;;;6.40;5.43;;;25.70;99.90;;;;;;6132570;23;20432;-92
2021/07/29 03:11:03;;;;;;;6.13;5.33;;;25.70;99.90;;;;;;6132382;23;20483;-92
2021/07/29 03:13:29;;;;;;;6.40;5.80;;;25.70;99.90;;;;;;6132254;23;20409;-92
2021/07/29 03:15:54;;;;;;;6.50;5.63;;;25.70;99.90;;;;;;6132562;23;20408;-94
2021/07/29 03:18:20;;;;;;;5.90;5.30;;;25.60;99.90;;;;;;6132339;23;20163;-92
2021/07/29 03:20:46;;;;;;;6.33;4.90;;;25.60;99.90;;;;;;6132540;23;20546;-95
2021/07/29 03:23:12;;;;;;;7.17;5.90;;;25.60;99.90;;;;;;6132713;23;20392;-93
2021/07/29 03:25:38;;;;;;;8.37;7.40;;;25.60;99.90;;;;;;6132123;23;20650;-94
2021/07/29 03:28:06;;;;;;;13.27;9.87;;;25.60;99.90;;;;;;6132480;23;20635;-94
2021/07/29 03:30:32;;;;;;;8.77;6.77;;;25.50;99.90;;;;;;6132039;23;20243;-94
2021/07/29 03:33:00;;;;;;;7.93;7.10;;;25.50;99.90;;;;;;6132326;23;20426;-94
2021/07/29 03:35:26;;;;;;;6.43;5.37;;;25.50;99.90;;;;;;6131779;23;20444;-92
2021/07/29 03:37:51;;;;;;;8.00;6.27;;;25.50;99.90;;;;;;6132333;23;20443;-91
2021/07/29 03:40:17;;;;;;;6.13;5.57;;;25.40;99.90;;;;;;6132174;23;20670;-93
2021/07/29 03:42:43;;;;;;;6.53;5.60;;;25.40;99.90;;;;;;6158359;23;20201;-92
2021/07/29 03:45:09;;;;;;;7.60;6.13;;;25.50;99.90;;;;;;6157864;23;20171;-93
2021/07/29 03:47:35;;;;;;;9.20;6.10;;;25.50;99.90;;;;;;6132403;23;20162;-92
2021/07/29 03:50:01;;;;;;;7.13;6.40;;;25.40;99.90;;;;;;6157680;23;20447;-91
2021/07/29 03:52:26;;;;;;;6.83;6.13;;;25.40;99.90;;;;;;6132148;23;20404;-93
2021/07/29 03:54:52;;;;;;;6.57;5.37;;;25.40;99.90;;;;;;6131748;23;20189;-93
2021/07/29 03:57:22;;;;;;;8.03;6.17;;;25.40;99.90;;;;;;6132434;23;20470;-95
2021/07/29 03:59:48;;;;;;;7.70;5.47;;;25.40;99.90;;;;;;6131828;23;20420;-94
2021/07/29 04:02:13;;;;;;;6.90;5.63;;;25.40;99.90;;;;;;6157851;23;20390;-94
2021/07/29 04:04:40;;;;;;;7.27;6.00;;;25.40;99.90;;;;;;6165854;23;20174;-93
2021/07/29 04:07:06;;;;;;;6.80;6.10;;;25.40;99.90;;;;;;6140333;23;20161;-92
2021/07/29 04:09:33;;;;;;;6.73;6.03;;;25.40;99.90;;;;;;6157659;23;20466;-90
2021/07/29 04:11:59;;;;;;;7.83;5.93;;;25.30;99.90;;;;;;6158060;23;20384;-93
2021/07/29 04:14:26;;;;;;;6.23;5.60;;;25.30;99.90;;;;;;6157731;23;20479;-95
2021/07/29 04:16:53;;;;;;;8.40;5.57;;;25.30;99.90;;;;;;6131211;23;20393;-92
2021/07/29 04:19:19;;;;;;;6.53;5.87;;;25.30;99.90;;;;;;6132440;23;20980;-93
2021/07/29 04:21:45;;;;;;;7.57;5.53;;;25.30;99.90;;;;;;6140988;23;20404;-89
2021/07/29 04:24:10;;;;;;;5.70;5.10;;;25.30;99.90;;;;;;6136549;23;20427;-93
2021/07/29 04:26:37;;;;;;;8.43;6.67;;;25.30;99.90;;;;;;6145706;23;20196;-90
2021/07/29 04:29:03;;;;;;;9.77;6.37;;;25.30;99.90;;;;;;6142486;23;20209;-92
2021/07/29 04:31:28;;;;;;;6.17;5.60;;;25.30;99.90;;;;;;6171207;23;20387;-93
2021/07/29 04:33:54;;;;;;;6.63;6.00;;;25.30;99.90;;;;;;6156992;23;20237;-88
2021/07/29 04:36:20;;;;;;;10.27;6.67;;;25.30;99.90;;;;;;6158352;23;20229;-91
2021/07/29 04:38:45;;;;;;;7.67;5.93;;;25.30;99.90;;;;;;6140445;23;20177;-90
2021/07/29 04:41:11;;;;;;;7.20;6.50;;;25.30;99.90;;;;;;6134620;23;20555;-91
2021/07/29 04:43:37;;;;;;;7.13;5.70;;;25.30;99.90;;;;;;6133414;23;20162;-91
2021/07/29 04:46:03;;;;;;;6.23;5.27;;;25.20;99.90;;;;;;6146281;23;20186;-94
2021/07/29 04:48:32;;;;;;;7.13;6.17;;;25.20;99.90;;;;;;6149869;23;20193;-93
2021/07/29 04:51:02;;;;;;;7.00;6.17;;;25.20;99.90;;;;;;6144365;23;20956;-92
2021/07/29 04:53:29;;;;;;;7.10;6.20;;;25.20;99.90;;;;;;6146165;23;20412;-92
2021/07/29 04:55:54;;;;;;;6.33;5.53;;;25.20;99.90;;;;;;6147242;23;20427;-94
2021/07/29 04:58:20;;;;;;;7.80;6.37;;;25.20;99.90;;;;;;6166977;23;20381;-91
2021/07/29 05:00:45;;;;;;;7.37;5.97;;;25.20;99.90;;;;;;6134384;23;20201;-92
2021/07/29 05:03:11;;;;;;;6.77;5.63;;;25.20;99.90;;;;;;6169867;23;20197;-91
2021/07/29 05:05:37;;;;;;;6.50;5.73;;;25.20;99.90;;;;;;6133217;23;20194;-90
2021/07/29 05:08:03;;;;;;;5.93;5.03;;;25.20;99.90;;;;;;6132869;23;20158;-91
2021/07/29 05:10:29;;;;;;;5.10;4.60;;;25.30;99.90;;;;;;6158227;23;20663;-92
2021/07/29 05:12:55;;;;;;;8.03;5.77;;;25.30;99.90;;;;;;6138221;23;20179;-92
2021/07/29 05:15:21;;;;;;;6.30;5.70;;;25.30;99.90;;;;;;6133314;23;20234;-94
2021/07/29 05:17:54;;;;;;;6.10;4.97;;;25.40;99.90;;;;;;6131158;23;20388;-94
2021/07/29 05:20:23;;;;;;;5.50;4.80;;;25.40;99.90;;;;;;6133204;23;20178;-91
2021/07/29 05:22:49;;;;;;;5.20;4.70;;;25.40;99.90;;;;;;6131194;23;20389;-92
2021/07/29 05:25:33;;;;;;;5.73;5.17;;;25.40;99.90;;;;;;6131338;23;20420;-93
2021/07/29 05:27:59;;;;;;;4.93;4.43;;;25.40;99.90;;;;;;6144290;23;20407;-91
2021/07/29 05:30:25;;;;;;;5.40;4.70;;;25.40;99.90;;;;;;6132351;23;20427;-94
2021/07/29 05:32:50;;;;;;;7.07;5.13;;;25.40;99.90;;;;;;6130149;23;20178;-95
2021/07/29 05:35:16;;;;;;;5.63;4.83;;;25.40;99.90;;;;;;6155091;23;20739;-93
2021/07/29 05:37:42;;;;;;;5.10;4.60;;;25.40;99.90;;;;;;6129237;23;20156;-90
2021/07/29 05:40:08;;;;;;;5.87;4.80;;;25.40;99.90;;;;;;6130001;23;20204;-92
2021/07/29 05:42:35;;;;;;;5.20;4.70;;;25.40;99.90;;;;;;6128537;23;20603;-95
2021/07/29 05:45:02;;;;;;;6.87;5.20;;;25.40;99.90;;;;;;6128504;23;20527;-91
2021/07/29 05:47:27;;;;;;;6.20;5.60;;;25.50;99.90;;;;;;6129496;23;20392;-93
2021/07/29 05:49:53;;;;;;;4.83;4.33;;;25.50;99.90;;;;;;6131968;23;20783;-90
2021/07/29 05:52:19;;;;;;;7.10;4.47;;;25.50;99.90;;;;;;6132648;23;20170;-92
2021/07/29 05:54:45;;;;;;;5.90;4.10;;;25.60;99.90;;;;;;6132283;23;20214;-94
2021/07/29 05:57:10;;;;;;;5.33;4.23;;;25.60;99.90;;;;;;6133389;23;20591;-91
2021/07/29 05:59:36;;;;;;;4.90;4.50;;;25.60;99.90;;;;;;6132772;23;20228;-93
2021/07/29 06:02:02;;;;;;;4.30;3.97;;;25.70;99.90;;;;;;6132795;23;20624;-94
2021/07/29 06:04:28;;;;;;;5.20;4.70;;;25.70;99.90;;;;;;6157959;23;20174;-94
2021/07/29 06:06:53;;;;;;;4.90;3.93;;;25.70;99.90;;;;;;6132777;23;20189;-90
2021/07/29 06:09:19;;;;;;;6.10;4.90;;;25.80;99.90;;;;;;6132281;23;20606;-89
2021/07/29 06:11:45;;;;;;;4.70;4.20;;;25.80;99.90;;;;;;6132618;23;20174;-91
2021/07/29 06:14:11;;;;;;;4.70;4.10;;;25.90;99.90;;;;;;6132395;23;20190;-92
2021/07/29 06:16:36;;;;;;;4.53;4.03;;;25.90;99.90;;;;;;6132447;23;20221;-94
2021/07/29 06:19:29;;;;;;;4.10;3.70;;;26.00;99.90;;;;;;6132429;23;20206;-89
2021/07/29 06:21:56;;;;;;;3.97;3.40;;;26.00;99.90;;;;;;6149632;23;20647;-91
2021/07/29 06:24:22;;;;;;;4.70;4.20;;;26.10;99.90;;;;;;6134676;23;20408;-93
2021/07/29 06:26:51;;;;;;;3.97;3.57;;;26.20;99.90;;;;;;6131459;23;20409;-90
2021/07/29 06:29:22;;;;;;;3.83;3.40;;;26.20;99.90;;;;;;6130648;23;20694;-91
2021/07/29 06:31:48;;;;;;;3.87;3.47;;;26.20;99.90;;;;;;6147906;23;20397;-93
2021/07/29 06:34:16;;;;;;;3.37;3.07;;;26.30;99.90;;;;;;6164732;23;20442;-95
2021/07/29 06:36:42;;;;;;;4.00;3.60;;;26.30;99.90;;;;;;6134761;23;20408;-91
2021/07/29 06:39:08;;;;;;;3.53;3.23;;;26.30;99.90;;;;;;6133085;23;20463;-91
2021/07/29 06:41:33;;;;;;;3.40;3.10;;;26.40;99.90;;;;;;6131199;23;20170;-93
2021/07/29 06:44:00;;;;;;;3.70;3.30;;;26.50;99.90;;;;;;6130628;23;20175;-91
2021/07/29 06:46:26;;;;;;;4.93;3.70;;;26.50;99.90;;;;;;6129719;23;20246;-90
2021/07/29 06:48:54;;;;;;;3.90;3.20;;;26.60;99.90;;;;;;6131461;23;20478;-94
2021/07/29 06:51:20;;;;;;;3.83;3.43;;;26.60;99.90;;;;;;6132835;23;20397;-93
2021/07/29 06:53:46;;;;;;;3.97;3.37;;;26.70;99.90;;;;;;6121731;23;20500;-91
2021/07/29 06:56:12;;;;;;;3.37;3.07;;;26.70;99.90;;;;;;6126695;23;20776;-92
2021/07/29 06:58:37;;;;;;;3.90;3.00;;;26.80;99.90;;;;;;6128801;23;20250;-93
2021/07/29 07:01:04;;;;;;;3.17;2.87;;;26.80;99.90;;;;;;6129740;23;20160;-92
2021/07/29 07:03:30;;;;;;;3.33;3.03;;;26.90;99.90;;;;;;6133373;23;20234;-94
2021/07/29 07:06:04;;;;;;;3.93;3.40;;;26.90;99.90;;;;;;6130168;23;20812;-95
2021/07/29 07:08:29;;;;;;;3.97;3.13;;;27.00;99.90;;;;;;6129787;23;20447;-93
2021/07/29 07:10:55;;;;;;;4.20;3.73;;;27.00;99.90;;;;;;6138968;23;20416;-92
2021/07/29 07:13:21;;;;;;;4.70;3.10;;;27.10;99.90;;;;;;6130115;23;20825;-96
2021/07/29 07:15:47;;;;;;;3.47;2.80;;;27.10;99.90;;;;;;6157841;23;20155;-92
2021/07/29 07:18:13;;;;;;;3.70;3.03;;;27.20;99.90;;;;;;6131512;23;20501;-92
2021/07/29 07:20:39;;;;;;;3.57;3.27;;;27.20;99.90;;;;;;6130828;23;20504;-94
2021/07/29 07:23:05;;;;;;;3.20;2.83;;;27.20;99.90;;;;;;6127565;23;20432;-92
2021/07/29 07:25:33;;;;;;;3.73;3.07;;;27.30;99.90;;;;;;6128897;23;20179;-91
2021/07/29 07:28:00;;;;;;;3.53;3.23;;;27.30;99.90;;;;;;6133796;23;20162;-94
2021/07/29 07:30:25;;;;;;;3.83;3.43;;;27.30;99.90;;;;;;6136234;23;20515;-95
2021/07/29 07:32:51;;;;;;;3.17;2.90;;;27.40;99.90;;;;;;6130661;23;20412;-91
2021/07/29 07:35:17;;;;;;;4.33;3.87;;;27.40;99.90;;;;;;6130276;23;20198;-91
2021/07/29 07:37:43;;;;;;;3.73;3.43;;;27.50;99.90;;;;;;6134450;23;20174;-92
2021/07/29 07:40:11;;;;;;;3.40;3.10;;;27.50;99.90;;;;;;6121611;23;20179;-93
2021/07/29 07:42:37;;;;;;;5.00;3.73;;;27.60;99.90;;;;;;6128667;23;20195;-94
2021/07/29 07:45:03;;;;;;;4.23;3.37;;;27.60;99.90;;;;;;6130508;23;20417;-91
2021/07/29 07:47:35;;;;;;;3.50;3.20;;;27.70;99.90;;;;;;6128677;23;20488;-92
2021/07/29 07:50:01;;;;;;;4.50;3.40;;;27.70;99.90;;;;;;6130165;23;20453;-91
2021/07/29 07:52:27;;;;;;;3.80;3.50;;;27.80;99.90;;;;;;6173354;23;20381;-93
2021/07/29 07:54:53;;;;;;;3.43;3.13;;;27.80;99.90;;;;;;6157556;23;20403;-94
2021/07/29 07:57:18;;;;;;;3.50;3.13;;;27.80;99.90;;;;;;6129145;23;20167;-92
2021/07/29 07:59:44;;;;;;;4.90;3.60;;;27.90;99.90;;;;;;6125662;23;20206;-94
2021/07/29 08:02:12;;;;;;;3.13;2.90;;;27.90;99.90;;;;;;6154356;23;20155;-90
2021/07/29 08:04:39;;;;;;;3.40;3.10;;;28.00;99.90;;;;;;6125990;23;20262;-91
2021/07/29 08:07:05;;;;;;;3.80;3.23;;;28.00;99.90;;;;;;6128020;23;20400;-90
2021/07/29 08:09:31;;;;;;;3.97;3.10;;;28.00;99.90;;;;;;6125571;23;20449;-90
2021/07/29 08:11:57;;;;;;;3.67;3.27;;;28.00;99.90;;;;;;6127762;23;20909;-93
2021/07/29 08:14:22;;;;;;;3.67;3.37;;;28.10;99.90;;;;;;6125421;23;20692;-93
2021/07/29 08:16:48;;;;;;;3.43;3.10;;;28.10;99.90;;;;;;6128630;23;20238;-91
2021/07/29 08:19:15;;;;;;;3.00;2.80;;;28.20;99.90;;;;;;6151478;23;20202;-95
2021/07/29 08:21:41;;;;;;;4.57;3.10;;;28.20;99.90;;;;;;6125992;23;20400;-94
2021/07/29 08:24:06;;;;;;;5.20;2.70;;;28.30;99.90;;;;;;6135885;23;20520;-90
2021/07/29 08:26:32;;;;;;;3.40;3.03;;;28.30;99.90;;;;;;6127098;23;20607;-93
2021/07/29 08:28:58;;;;;;;3.43;2.70;;;28.40;99.90;;;;;;6120778;23;20210;-94
2021/07/29 08:31:24;;;;;;;3.30;3.00;;;28.50;99.90;;;;;;6128774;23;20582;-93
2021/07/29 08:33:50;;;;;;;3.50;3.20;;;28.60;99.90;;;;;;6127217;23;20211;-94
2021/07/29 08:36:18;;;;;;;3.23;2.90;;;28.70;99.90;;;;;;6127655;23;20163;-90
2021/07/29 08:38:45;;;;;;;3.53;3.23;;;28.70;99.90;;;;;;6125352;23;20406;-90
2021/07/29 08:41:14;;;;;;;3.90;2.93;;;28.70;99.90;;;;;;6131953;23;20392;-92
2021/07/29 08:43:40;;;;;;;3.60;3.10;;;28.80;99.90;;;;;;6129311;23;20424;-90
2021/07/29 08:46:17;;;;;;;4.30;3.60;;;28.90;99.90;;;;;;6129674;23;20503;-92
2021/07/29 08:48:48;;;;;;;6.20;3.57;;;29.00;99.90;;;;;;6114425;23;20342;-93
2021/07/29 08:51:25;;;;;;;6.00;3.20;;;29.00;99.90;;;;;;6126684;23;20394;-90
2021/07/29 08:53:52;;;;;;;4.60;3.33;;;29.10;99.90;;;;;;6154184;23;20464;-92
2021/07/29 08:56:23;;;;;;;2.80;2.60;;;29.10;99.90;;;;;;6142166;23;20416;-92
2021/07/29 08:58:49;;;;;;;4.00;3.13;;;29.20;99.90;;;;;;6116685;23;20462;-92
2021/07/29 09:01:15;;;;;;;3.30;2.70;;;29.20;99.90;;;;;;6141853;23;20396;-94
2021/07/29 09:03:44;;;;;;;3.03;2.83;;;29.30;99.90;;;;;;6132470;23;20972;-93
2021/07/29 09:06:14;;;;;;;5.50;3.00;;;29.30;99.90;;;;;;6128329;23;20865;-94
2021/07/29 09:08:44;;;;;;;5.47;3.50;;;29.30;99.90;;;;;;6124621;23;20456;-91
2021/07/29 09:11:37;;;;;;;4.23;3.30;;;29.40;99.90;;;;;;6128563;23;20423;-92
2021/07/29 09:14:18;;;;;;;3.10;2.80;;;29.30;99.90;;;;;;6129372;23;20991;-90
2021/07/29 09:17:05;;;;;;;3.40;2.90;;;29.40;99.90;;;;;;6152339;23;20460;-94
2021/07/29 09:19:53;;;;;;;4.50;2.60;;;29.40;99.90;;;;;;6156178;23;20414;-88
2021/07/29 09:22:24;;;;;;;3.60;3.30;;;29.50;99.90;;;;;;6136642;23;20401;-92
2021/07/29 09:25:12;;;;;;;3.20;2.90;;;29.50;99.90;;;;;;6128368;23;20441;-92
2021/07/29 09:27:38;;;;;;;3.10;2.60;;;29.60;99.90;;;;;;6127261;23;20400;-93
2021/07/29 09:30:23;;;;;;;3.83;3.20;;;29.70;99.90;;;;;;6128556;23;20438;-91
2021/07/29 09:33:18;;;;;;;2.40;2.20;;;29.80;99.90;;;;;;6131403;23;20170;-95
2021/07/29 09:35:52;;;;;;;2.77;2.30;;;29.90;99.90;;;;;;6110223;23;20444;-89
2021/07/29 09:38:22;;;;;;;2.60;2.30;;;30.00;99.70;;;;;;6130410;23;20395;-93
2021/07/29 09:40:54;;;;;;;2.70;2.30;;;30.10;99.90;;;;;;6134480;23;20400;-94
2021/07/29 09:43:25;;;;;;;3.00;2.40;;;30.10;98.20;;;;;;6167632;23;20414;-90
2021/07/29 09:45:55;;;;;;;3.13;2.03;;;30.20;97.50;;;;;;6159515;23;20482;-92
2021/07/29 09:48:22;;;;;;;3.77;2.30;;;30.30;97.90;;;;;;6129258;23;20440;-89
2021/07/29 09:50:49;;;;;;;2.93;2.20;;;30.20;98.10;;;;;;6130072;23;20863;-89
2021/07/29 09:53:15;;;;;;;2.53;2.33;;;30.20;99.50;;;;;;6132334;23;20380;-93
2021/07/29 09:55:41;;;;;;;2.40;2.20;;;30.20;98.60;;;;;;6157711;23;20487;-90
2021/07/29 09:58:08;;;;;;;1.77;1.63;;;30.20;97.80;;;;;;6153616;23;20869;-94
2021/07/29 10:00:40;;;;;;;2.10;1.90;;;30.30;96.00;;;;;;6128904;23;20451;-93
2021/07/29 10:03:07;;;;;;;1.70;1.60;;;30.30;97.10;;;;;;6153025;23;20427;-96
2021/07/29 10:05:48;;;;;;;2.07;1.43;;;30.40;98.40;;;;;;6130706;23;20901;-94
2021/07/29 10:08:23;;;;;;;2.27;2.07;;;30.40;98.40;;;;;;6139323;23;20976;-95
2021/07/29 10:10:49;;;;;;;1.70;1.40;;;30.40;98.00;;;;;;6133735;23;20412;-91
2021/07/29 10:13:15;;;;;;;2.17;1.60;;;30.50;98.10;;;;;;6160324;23;20399;-91
2021/07/29 10:15:43;;;;;;;2.10;2.00;;;30.60;97.30;;;;;;6129605;23;20267;-92
2021/07/29 10:18:13;;;;;;;2.27;1.93;;;30.70;97.30;;;;;;6126607;23;20593;-92
2021/07/29 10:20:41;;;;;;;2.30;2.10;;;30.70;97.40;;;;;;6127421;23;20445;-95
2021/07/29 10:23:12;;;;;;;3.00;2.00;;;30.70;97.60;;;;;;6126934;23;20466;-94
2021/07/29 10:25:53;;;;;;;1.90;1.80;;;30.80;97.40;;;;;;6156106;23;20413;-93
2021/07/29 10:28:27;;;;;;;1.93;1.83;;;30.80;97.40;;;;;;6129582;23;20432;-92
2021/07/29 10:30:54;;;;;;;4.10;2.13;;;30.90;97.60;;;;;;6139330;23;20810;-93
2021/07/29 10:33:23;;;;;;;1.93;1.80;;;30.90;97.40;;;;;;6140476;23;20403;-90
2021/07/29 10:35:49;;;;;;;2.27;1.93;;;30.90;96.40;;;;;;6157665;23;20461;-92
2021/07/29 10:38:38;;;;;;;2.00;1.80;;;31.00;94.50;;;;;;6130353;23;20388;-90
2021/07/29 10:41:06;;;;;;;2.37;2.17;;;31.10;93.80;;;;;;6129796;23;20405;-93
2021/07/29 10:43:32;;;;;;;2.30;2.10;;;31.10;93.80;;;;;;6155644;23;20369;-94
2021/07/29 10:46:00;;;;;;;1.87;1.57;;;31.10;93.90;;;;;;6128280;23;20411;-91
2021/07/29 10:48:46;;;;;;;3.20;2.20;;;31.20;93.50;;;;;;6130367;23;20200;-94
2021/07/29 10:51:15;;;;;;;1.77;1.67;;;31.20;94.60;;;;;;6137339;23;20423;-93
2021/07/29 10:53:43;;;;;;;1.60;1.50;;;31.20;95.50;;;;;;6157591;23;20395;-89
2021/07/29 10:56:11;;;;;;;2.03;1.93;;;31.10;96.10;;;;;;6130093;23;20418;-94
2021/07/29 10:58:43;;;;;;;1.80;1.70;;;31.10;96.00;;;;;;6129339;23;20392;-91
2021/07/29 11:01:11;;;;;;;2.07;1.87;;;31.10;95.80;;;;;;6126105;23;20894;-92
2021/07/29 11:03:50;;;;;;;1.83;1.60;;;31.10;96.00;;;;;;6129760;23;20447;-95
2021/07/29 11:06:28;;;;;;;2.00;1.80;;;31.00;96.70;;;;;;6129482;23;20406;-94
2021/07/29 11:08:54;;;;;;;2.43;2.23;;;31.10;96.90;;;;;;6123453;23;20487;-92
2021/07/29 11:11:20;;;;;;;1.60;1.50;;;31.10;95.50;;;;;;6159962;23;20388;-91
2021/07/29 11:13:47;;;;;;;2.10;1.60;;;31.10;93.30;;;;;;6162061;23;20178;-93
2021/07/29 11:16:17;;;;;;;1.70;1.60;;;31.20;96.10;;;;;;6130865;23;20431;-95
2021/07/29 11:18:58;;;;;;;3.20;2.40;;;31.10;95.10;;;;;;6156063;23;20461;-90
2021/07/29 11:21:24;;;;;;;1.93;1.73;;;31.20;93.30;;;;;;6131780;23;20454;-93
2021/07/29 11:23:50;;;;;;;2.63;1.80;;;31.20;92.30;;;;;;6131099;23;20456;-90
2021/07/29 11:26:16;;;;;;;2.67;1.97;;;31.20;92.70;;;;;;6135740;23;20166;-94
2021/07/29 11:28:41;;;;;;;2.10;1.90;;;31.20;95.60;;;;;;6130020;23;20205;-91
2021/07/29 11:31:16;;;;;;;2.30;2.00;;;31.10;96.20;;;;;;6130684;23;20170;-96
2021/07/29 11:33:48;;;;;;;2.57;2.37;;;31.00;96.50;;;;;;6130559;23;20177;-94
2021/07/29 11:36:18;;;;;;;2.10;2.00;;;31.00;93.00;;;;;;6129634;23;20406;-93
2021/07/29 11:38:54;;;;;;;2.90;2.10;;;31.00;93.40;;;;;;6128853;23;20427;-95
2021/07/29 11:41:20;;;;;;;2.23;2.03;;;31.10;95.90;;;;;;6135848;23;20415;-95
2021/07/29 11:43:52;;;;;;;2.40;1.63;;;31.10;94.50;;;;;;6142547;23;20419;-96
2021/07/29 11:46:18;;;;;;;2.30;2.10;;;31.10;95.40;;;;;;6132369;23;20170;-93
2021/07/29 11:48:43;;;;;;;2.20;2.00;;;31.10;95.90;;;;;;6131520;23;20456;-96
2021/07/29 11:51:16;;;;;;;2.33;2.00;;;31.10;95.90;;;;;;6129755;23;20264;-94
2021/07/29 11:53:44;;;;;;;2.00;1.80;;;31.20;95.70;;;;;;6133308;23;20184;-89
2021/07/29 11:56:12;;;;;;;2.70;2.43;;;31.10;96.00;;;;;;6137589;23;20490;-96
2021/07/29 11:58:39;;;;;;;2.77;2.17;;;31.20;93.50;;;;;;6134592;23;22140;-96
2021/07/29 12:01:12;;;;;;;2.07;1.70;;;31.20;95.30;;;;;;6158953;23;20407;-92
2021/07/29 12:03:43;;;;;;;2.10;1.83;;;31.30;95.60;;;;;;6129528;23;20420;-96
2021/07/29 12:06:10;;;;;;;2.60;2.40;;;31.30;92.70;;;;;;6129846;23;20401;-94
2021/07/29 12:08:40;;;;;;;2.93;2.37;;;31.40;92.30;;;;;;6127609;23;20443;-90
2021/07/29 12:11:07;;;;;;;3.03;2.73;;;31.40;93.30;;;;;;6126182;23;20494;-92
2021/07/29 12:13:33;;;;;;;2.13;1.90;;;31.50;92.30;;;;;;6126026;23;20455;-89
2021/07/29 12:15:59;;;;;;;2.40;2.20;;;31.50;93.20;;;;;;6126565;23;20413;-87
2021/07/29 12:18:26;;;;;;;2.50;2.30;;;31.70;90.20;;;;;;6126354;23;20458;-94
2021/07/29 12:20:56;;;;;;;2.00;1.90;;;31.80;89.70;;;;;;6153979;23;20393;-95
2021/07/29 12:23:23;;;;;;;2.40;1.87;;;31.80;91.90;;;;;;6126537;23;20481;-95
2021/07/29 12:25:50;;;;;;;2.10;1.90;;;31.90;89.30;;;;;;6156212;23;20400;-93
2021/07/29 12:28:43;;;;;;;1.73;1.63;;;31.90;93.00;;;;;;6127395;23;20494;-89
2021/07/29 12:31:18;;;;;;;1.93;1.70;;;31.90;92.50;;;;;;6127390;23;20405;-93
2021/07/29 12:33:49;;;;;;;2.93;2.20;;;31.90;90.30;;;;;;6125183;23;20784;-93
2021/07/29 12:36:15;;;;;;;2.53;2.33;;;31.90;84.90;;;;;;6125153;23;20405;-95
2021/07/29 12:38:42;;;;;;;2.50;2.30;;;32.00;85.40;;;;;;6125965;23;20428;-95
2021/07/29 12:41:10;;;;;;;2.43;2.23;;;31.90;92.30;;;;;;6133942;23;20389;-94
2021/07/29 12:43:38;;;;;;;2.20;2.03;;;32.00;92.40;;;;;;6128622;23;20389;-94
2021/07/29 12:46:07;;;;;;;2.80;2.53;;;32.00;91.90;;;;;;6129260;23;20809;-92
2021/07/29 12:48:59;;;;;;;2.43;1.97;;;32.00;87.00;;;;;;6126524;23;20804;-93
2021/07/29 12:51:55;;;;;;;2.27;2.07;;;32.00;91.70;;;;;;6153329;23;20495;-95